Time;durP1;ratioP1;P1;durP2;ratioP2;P2;SDS_P1;SDS_P2;PMS_P1;PMS_P2;Temp;Humidity;BMP_temperature;BMP_pressure;BME280_temperature;BME280_humidity;BME280_pressure;Samples;Min_cycle;Max_cycle;Signal;HPM_P1;HPM_P2
2022/03/27 00:01:50;;;;;;;0.10;0.10;;;11.20;99.90;;;;;;4983981;28;20220;-66
2022/03/27 00:04:17;;;;;;;0.10;0.10;;;11.20;99.90;;;;;;4979299;28;20301;-67
2022/03/27 00:06:43;;;;;;;0.10;0.10;;;11.20;99.90;;;;;;4984994;28;20225;-66
2022/03/27 00:09:10;;;;;;;0.10;0.10;;;11.20;99.90;;;;;;4985464;28;20202;-67
2022/03/27 00:11:37;;;;;;;0.10;0.10;;;11.20;99.90;;;;;;4976919;28;20198;-67
2022/03/27 00:14:06;;;;;;;0.10;0.10;;;11.10;99.90;;;;;;4968871;28;20210;-67
2022/03/27 00:16:34;;;;;;;0.10;0.10;;;;;;;;;;4969257;28;20232;-68
2022/03/27 00:19:03;;;;;;;0.10;0.10;;;;;;;;;;4970247;28;20217;-67
2022/03/27 00:21:30;;;;;;;0.10;0.10;;;;;;;;;;4969508;28;20234;-67
2022/03/27 00:23:57;;;;;;;0.10;0.10;;;11.00;99.90;;;;;;4984784;28;20206;-68
2022/03/27 00:26:25;;;;;;;0.10;0.10;;;10.90;99.90;;;;;;4979583;28;20245;-66
2022/03/27 00:28:53;;;;;;;0.10;0.10;;;10.90;99.90;;;;;;4979677;28;20202;-67
2022/03/27 00:31:20;;;;;;;0.10;0.10;;;11.00;99.90;;;;;;4967655;28;20292;-67
2022/03/27 00:33:47;;;;;;;0.10;0.10;;;10.90;99.90;;;;;;4969175;28;20206;-67
2022/03/27 00:36:21;;;;;;;0.10;0.10;;;10.90;99.90;;;;;;4984495;28;20236;-69
2022/03/27 00:38:47;;;;;;;0.10;0.10;;;10.80;99.90;;;;;;4963175;28;20675;-67
2022/03/27 00:41:15;;;;;;;0.10;0.10;;;10.80;99.90;;;;;;4964608;28;20632;-68
2022/03/27 00:43:43;;;;;;;0.10;0.10;;;10.80;99.90;;;;;;4986228;28;20687;-67
2022/03/27 00:46:10;;;;;;;0.10;0.10;;;10.70;99.90;;;;;;4964524;28;20279;-67
2022/03/27 00:48:38;;;;;;;0.10;0.10;;;10.60;99.90;;;;;;4980926;28;20194;-68
2022/03/27 00:51:06;;;;;;;0.10;0.10;;;10.60;99.90;;;;;;4980321;28;20201;-67
2022/03/27 00:53:34;;;;;;;0.10;0.10;;;10.60;99.90;;;;;;4958731;28;20209;-68
2022/03/27 00:56:01;;;;;;;0.10;0.10;;;10.60;99.90;;;;;;4965561;28;20230;-67
2022/03/27 00:58:28;;;;;;;0.10;0.10;;;10.60;99.90;;;;;;4975042;28;20230;-67
2022/03/27 01:01:05;;;;;;;0.10;0.10;;;10.60;99.90;;;;;;4966931;28;20206;-67
2022/03/27 01:03:32;;;;;;;0.10;0.10;;;10.60;99.90;;;;;;4974480;28;20213;-68
2022/03/27 01:05:59;;;;;;;0.10;0.10;;;10.60;99.90;;;;;;4968818;28;20257;-68
2022/03/27 01:11:16;;;;;;;0.10;0.10;;;10.60;99.90;;;;;;4966784;28;20202;-67
2022/03/27 01:13:46;;;;;;;0.10;0.10;;;10.70;99.90;;;;;;4965035;28;20687;-66
2022/03/27 01:16:28;;;;;;;0.10;0.10;;;10.70;99.90;;;;;;4979546;28;20238;-67
2022/03/27 01:18:55;;;;;;;0.10;0.10;;;10.70;99.90;;;;;;4975075;28;20668;-66
2022/03/27 01:21:23;;;;;;;0.10;0.10;;;10.70;99.90;;;;;;4980699;28;20206;-67
2022/03/27 01:23:50;;;;;;;0.10;0.10;;;10.70;99.90;;;;;;4965371;28;20213;-67
2022/03/27 01:26:18;;;;;;;0.10;0.10;;;10.70;99.90;;;;;;4970121;28;20214;-66
2022/03/27 01:28:45;;;;;;;0.10;0.10;;;10.70;99.90;;;;;;4954665;28;20232;-66
2022/03/27 01:31:12;;;;;;;0.10;0.10;;;10.80;99.90;;;;;;4953902;28;20249;-67
2022/03/27 01:33:39;;;;;;;0.07;0.07;;;10.70;99.90;;;;;;4964530;28;20292;-67
2022/03/27 01:36:06;;;;;;;0.10;0.10;;;10.60;99.90;;;;;;4980579;28;20241;-66
2022/03/27 01:38:34;;;;;;;0.10;0.10;;;10.50;99.90;;;;;;4965370;28;20194;-67
2022/03/27 01:41:01;;;;;;;0.10;0.10;;;10.50;99.90;;;;;;4964295;28;20256;-65
2022/03/27 01:43:28;;;;;;;0.10;0.10;;;10.50;99.90;;;;;;4975186;28;20256;-67
2022/03/27 01:45:56;;;;;;;0.10;0.10;;;;;;;;;;4956739;28;20230;-66
2022/03/27 01:48:23;;;;;;;0.10;0.10;;;10.40;99.90;;;;;;4964790;28;20197;-67
2022/03/27 01:50:59;;;;;;;0.10;0.10;;;10.40;99.90;;;;;;4965459;28;20203;-67
2022/03/27 01:53:27;;;;;;;0.10;0.10;;;10.40;99.90;;;;;;4957735;28;20240;-67
2022/03/27 01:55:55;;;;;;;0.00;0.00;;;;;;;;;;4970389;28;20234;-68
2022/03/27 01:58:22;;;;;;;0.10;0.10;;;10.30;99.90;;;;;;4979298;28;20226;-67
2022/03/27 02:00:50;;;;;;;0.10;0.10;;;10.30;99.90;;;;;;4964083;28;20253;-68
2022/03/27 02:03:18;;;;;;;0.10;0.10;;;10.30;99.90;;;;;;4979545;28;20202;-67
2022/03/27 02:05:45;;;;;;;0.10;0.10;;;;;;;;;;4965433;28;20217;-67
2022/03/27 02:08:13;;;;;;;0.10;0.10;;;;;;;;;;4969993;28;20202;-66
2022/03/27 02:10:41;;;;;;;0.10;0.10;;;;;;;;;;4964391;28;20206;-67
2022/03/27 02:13:14;;;;;;;0.10;0.10;;;;;;;;;;4980667;28;20675;-67
2022/03/27 02:15:41;;;;;;;0.10;0.10;;;;;;;;;;4975090;28;20225;-67
2022/03/27 02:18:10;;;;;;;0.10;0.10;;;10.20;99.90;;;;;;4973531;28;20229;-67
2022/03/27 02:20:37;;;;;;;0.10;0.10;;;9.80;99.90;;;;;;4978911;28;20237;-67
2022/03/27 02:23:03;;;;;;;0.10;0.10;;;9.80;99.90;;;;;;4964914;28;20202;-68
2022/03/27 02:25:30;;;;;;;0.10;0.10;;;9.80;99.90;;;;;;4965458;28;20229;-67
2022/03/27 02:27:58;;;;;;;0.10;0.10;;;;;;;;;;4963515;28;20210;-67
2022/03/27 02:30:27;;;;;;;0.10;0.10;;;;;;;;;;4978580;28;20292;-67
2022/03/27 02:32:54;;;;;;;0.10;0.10;;;;;;;;;;4979714;28;20210;-67
2022/03/27 02:35:21;;;;;;;0.10;0.10;;;;;;;;;;4964573;28;20228;-66
2022/03/27 02:37:48;;;;;;;0.10;0.10;;;;;;;;;;4963590;28;20232;-67
2022/03/27 02:40:16;;;;;;;0.10;0.10;;;;;;;;;;4963207;28;20237;-67
2022/03/27 02:42:43;;;;;;;0.10;0.10;;;;;;;;;;4963651;28;20288;-66
2022/03/27 02:45:11;;;;;;;0.10;0.10;;;;;;;;;;4971530;28;20224;-67
2022/03/27 02:47:39;;;;;;;0.10;0.10;;;;;;;;;;4963413;28;20260;-68
2022/03/27 02:50:07;;;;;;;0.10;0.10;;;;;;;;;;4980030;28;20304;-67
2022/03/27 02:52:34;;;;;;;0.10;0.10;;;;;;;;;;4974526;28;20206;-67
2022/03/27 02:55:02;;;;;;;0.10;0.10;;;;;;;;;;4969655;28;20663;-67
2022/03/27 02:57:29;;;;;;;0.10;0.10;;;;;;;;;;4963172;28;20229;-67
2022/03/27 02:59:57;;;;;;;0.10;0.10;;;;;;;;;;4964339;28;20284;-66
2022/03/27 03:02:24;;;;;;;0.10;0.10;;;;;;;;;;4964781;28;20284;-68
2022/03/27 03:04:53;;;;;;;0.10;0.10;;;;;;;;;;4978220;28;20210;-67
2022/03/27 03:07:20;;;;;;;0.10;0.10;;;;;;;;;;4963065;28;20234;-68
2022/03/27 03:09:48;;;;;;;0.10;0.10;;;;;;;;;;4965154;28;20260;-67
2022/03/27 03:12:15;;;;;;;0.10;0.10;;;;;;;;;;4963325;28;20279;-67
2022/03/27 03:14:42;;;;;;;0.10;0.10;;;;;;;;;;4975662;28;20206;-67
2022/03/27 03:17:10;;;;;;;0.10;0.10;;;;;;;;;;4971830;28;20218;-67
2022/03/27 03:19:38;;;;;;;0.20;0.20;;;;;;;;;;4974930;28;20206;-67
2022/03/27 03:22:07;;;;;;;0.10;0.10;;;;;;;;;;4978373;28;20202;-67
2022/03/27 03:24:35;;;;;;;0.10;0.10;;;;;;;;;;4970710;28;20291;-66
2022/03/27 03:27:02;;;;;;;0.10;0.10;;;9.70;99.90;;;;;;4963779;28;20284;-66
2022/03/27 03:29:28;;;;;;;0.10;0.10;;;9.30;99.90;;;;;;4964285;28;20345;-67
2022/03/27 03:31:56;;;;;;;0.10;0.10;;;9.20;99.90;;;;;;4955439;28;20659;-67
2022/03/27 03:34:23;;;;;;;0.10;0.10;;;9.20;99.90;;;;;;4978414;28;20636;-68
2022/03/27 03:36:50;;;;;;;0.13;0.13;;;9.10;99.90;;;;;;4969900;28;20241;-67
2022/03/27 03:39:18;;;;;;;0.10;0.10;;;9.20;99.90;;;;;;4977971;28;20210;-67
2022/03/27 03:41:46;;;;;;;0.10;0.10;;;9.20;99.90;;;;;;4962916;28;20633;-67
2022/03/27 03:44:13;;;;;;;0.10;0.10;;;9.20;99.90;;;;;;4964648;28;20617;-70
2022/03/27 03:46:40;;;;;;;0.10;0.10;;;9.20;99.90;;;;;;4967888;28;20657;-67
2022/03/27 03:49:07;;;;;;;0.10;0.10;;;9.20;99.90;;;;;;4971259;28;20732;-68
2022/03/27 03:51:35;;;;;;;0.20;0.20;;;9.20;99.90;;;;;;4953389;28;20204;-69
2022/03/27 03:54:02;;;;;;;0.20;0.20;;;9.30;99.90;;;;;;4978908;28;20633;-68
2022/03/27 03:56:30;;;;;;;0.10;0.10;;;9.30;99.90;;;;;;4978262;28;20667;-68
2022/03/27 03:58:57;;;;;;;0.10;0.10;;;9.20;99.90;;;;;;4978565;28;20637;-68
2022/03/27 04:01:24;;;;;;;0.10;0.10;;;9.20;99.90;;;;;;4963709;28;20202;-69
2022/03/27 04:03:51;;;;;;;0.10;0.10;;;9.20;99.90;;;;;;4962141;28;20617;-68
2022/03/27 04:06:18;;;;;;;0.20;0.20;;;9.10;99.90;;;;;;4962460;28;20676;-67
2022/03/27 04:08:45;;;;;;;0.20;0.20;;;9.00;99.90;;;;;;4954261;28;20632;-68
2022/03/27 04:11:16;;;;;;;0.10;0.10;;;9.10;99.90;;;;;;4957874;28;20214;-66
2022/03/27 04:13:44;;;;;;;0.10;0.10;;;9.00;99.90;;;;;;4963713;28;20667;-67
2022/03/27 04:16:11;;;;;;;0.13;0.13;;;9.00;99.90;;;;;;4964295;28;20236;-67
2022/03/27 04:18:38;;;;;;;0.10;0.10;;;9.00;99.90;;;;;;4963787;28;20758;-67
2022/03/27 04:21:05;;;;;;;0.10;0.10;;;9.00;99.90;;;;;;4954224;28;20637;-68
2022/03/27 04:23:32;;;;;;;0.10;0.10;;;9.00;99.90;;;;;;4952718;28;20647;-68
2022/03/27 04:25:59;;;;;;;0.10;0.10;;;8.90;99.90;;;;;;4954438;28;20697;-68
2022/03/27 04:28:26;;;;;;;0.10;0.10;;;8.90;99.90;;;;;;4963248;28;20629;-68
2022/03/27 04:30:54;;;;;;;0.10;0.10;;;8.90;99.90;;;;;;4978557;28;20645;-67
2022/03/27 04:33:21;;;;;;;0.10;0.10;;;;;;;;;;4956729;28;20644;-68
2022/03/27 04:35:49;;;;;;;0.10;0.10;;;;;;;;;;4966536;28;20675;-68
2022/03/27 04:38:16;;;;;;;0.13;0.13;;;;;;;;;;4973653;28;20680;-68
2022/03/27 04:40:43;;;;;;;0.10;0.10;;;;;;;;;;4976295;28;20661;-68
2022/03/27 04:43:12;;;;;;;0.10;0.10;;;;;;;;;;4982340;28;20736;-69
2022/03/27 04:45:39;;;;;;;0.10;0.10;;;;;;;;;;4966712;28;21187;-68
2022/03/27 04:48:08;;;;;;;0.10;0.10;;;;;;;;;;4965309;28;21199;-68
2022/03/27 04:50:35;;;;;;;0.10;0.10;;;;;;;;;;4977213;28;20653;-69
2022/03/27 04:53:03;;;;;;;0.10;0.10;;;;;;;;;;4976319;28;20633;-68
2022/03/27 04:55:30;;;;;;;0.10;0.10;;;8.80;99.90;;;;;;4972590;28;20722;-67
2022/03/27 04:57:56;;;;;;;0.10;0.10;;;8.40;99.90;;;;;;4980865;28;20768;-69
2022/03/27 05:00:23;;;;;;;0.10;0.10;;;8.40;99.90;;;;;;4981051;28;21202;-69
2022/03/27 05:02:51;;;;;;;0.10;0.10;;;8.30;99.90;;;;;;4970016;28;20625;-68
2022/03/27 05:05:19;;;;;;;0.10;0.10;;;8.20;99.90;;;;;;4953822;28;20617;-68
2022/03/27 05:07:46;;;;;;;0.10;0.10;;;8.20;99.90;;;;;;4979827;28;20667;-68
2022/03/27 05:10:14;;;;;;;0.10;0.10;;;8.20;99.90;;;;;;4981308;28;20687;-68
2022/03/27 05:12:42;;;;;;;0.10;0.10;;;8.10;99.90;;;;;;4954325;28;21201;-69
2022/03/27 05:15:10;;;;;;;0.13;0.13;;;8.00;99.90;;;;;;4972575;28;20762;-68
2022/03/27 05:17:47;;;;;;;0.10;0.10;;;8.00;99.90;;;;;;4980369;28;20665;-68
2022/03/27 05:20:14;;;;;;;0.10;0.10;;;8.00;99.90;;;;;;4957436;28;21303;-67
2022/03/27 05:22:43;;;;;;;0.10;0.10;;;;;;;;;;4954171;28;20739;-68
2022/03/27 05:25:11;;;;;;;0.10;0.10;;;;;;;;;;4980182;28;20633;-68
2022/03/27 05:27:44;;;;;;;0.10;0.10;;;8.00;99.90;;;;;;4964988;28;20659;-68
2022/03/27 05:30:11;;;;;;;0.10;0.10;;;7.90;99.90;;;;;;4967446;28;20609;-69
2022/03/27 05:32:38;;;;;;;0.10;0.10;;;8.00;99.90;;;;;;4966257;28;20617;-67
2022/03/27 05:35:07;;;;;;;0.10;0.10;;;8.00;99.90;;;;;;4966998;28;20627;-69
2022/03/27 05:37:36;;;;;;;0.10;0.10;;;8.10;99.90;;;;;;4980631;28;20688;-67
2022/03/27 05:40:08;;;;;;;0.10;0.10;;;8.10;99.90;;;;;;4965970;28;20620;-67
2022/03/27 05:42:35;;;;;;;0.20;0.20;;;8.10;99.90;;;;;;4980321;28;20704;-67
2022/03/27 05:45:02;;;;;;;0.10;0.10;;;8.00;99.90;;;;;;4980150;28;20641;-68
2022/03/27 05:47:29;;;;;;;0.20;0.20;;;8.00;99.90;;;;;;4966282;28;20643;-68
2022/03/27 05:49:56;;;;;;;0.20;0.20;;;7.90;99.90;;;;;;4980701;28;20633;-67
2022/03/27 05:52:23;;;;;;;0.30;0.30;;;7.80;99.90;;;;;;4956168;28;20752;-68
2022/03/27 05:54:50;;;;;;;0.20;0.20;;;7.80;99.90;;;;;;4979311;28;20755;-68
2022/03/27 05:57:19;;;;;;;0.50;0.50;;;7.80;99.90;;;;;;4965505;28;20684;-68
2022/03/27 05:59:46;;;;;;;0.40;0.40;;;7.70;99.90;;;;;;4965874;28;20658;-68
2022/03/27 06:02:13;;;;;;;0.30;0.30;;;7.70;99.90;;;;;;4964543;28;20621;-67
2022/03/27 06:04:40;;;;;;;0.40;0.40;;;7.80;99.90;;;;;;4969330;28;20632;-67
2022/03/27 06:07:07;;;;;;;0.20;0.20;;;7.80;99.90;;;;;;4965622;28;20673;-68
2022/03/27 06:09:35;;;;;;;0.73;0.73;;;7.70;99.90;;;;;;4959004;28;21386;-67
2022/03/27 06:12:02;;;;;;;0.40;0.40;;;7.70;99.90;;;;;;4981159;28;20665;-67
2022/03/27 06:14:30;;;;;;;0.60;0.60;;;7.70;99.90;;;;;;4965945;28;20704;-67
2022/03/27 06:16:58;;;;;;;0.47;0.47;;;7.70;99.90;;;;;;4979074;28;20743;-68
2022/03/27 06:19:26;;;;;;;0.87;0.87;;;7.70;99.90;;;;;;4959400;28;20658;-68
2022/03/27 06:21:53;;;;;;;0.70;0.70;;;7.70;99.90;;;;;;4964599;28;20609;-67
2022/03/27 06:24:20;;;;;;;0.70;0.70;;;7.80;99.90;;;;;;4957338;28;20637;-68
2022/03/27 06:26:47;;;;;;;0.50;0.50;;;7.80;99.90;;;;;;4951896;28;21040;-68
2022/03/27 06:29:14;;;;;;;0.80;0.80;;;7.80;99.90;;;;;;4974123;28;20652;-67
2022/03/27 06:31:42;;;;;;;0.73;0.73;;;7.80;99.90;;;;;;4966270;28;20612;-68
2022/03/27 06:34:09;;;;;;;0.40;0.40;;;7.80;99.90;;;;;;4979867;28;20626;-67
2022/03/27 06:36:36;;;;;;;0.70;0.70;;;7.80;99.90;;;;;;4963905;28;20644;-67
2022/03/27 06:39:06;;;;;;;0.30;0.30;;;7.90;99.90;;;;;;4963973;28;20665;-67
2022/03/27 06:41:33;;;;;;;0.30;0.30;;;7.80;99.90;;;;;;4965127;28;20617;-68
2022/03/27 06:44:00;;;;;;;0.20;0.20;;;7.80;99.90;;;;;;4965477;28;20617;-68
2022/03/27 06:46:27;;;;;;;0.27;0.27;;;7.70;99.90;;;;;;4978353;28;20700;-68
2022/03/27 06:48:56;;;;;;;0.30;0.30;;;7.70;99.90;;;;;;4970258;28;20618;-66
2022/03/27 06:51:23;;;;;;;0.27;0.27;;;7.70;99.90;;;;;;4979505;28;20932;-68
2022/03/27 06:53:50;;;;;;;0.20;0.20;;;7.70;99.90;;;;;;4958429;28;20637;-67
2022/03/27 06:56:17;;;;;;;0.30;0.30;;;7.70;99.90;;;;;;4977807;28;20668;-68
2022/03/27 06:58:43;;;;;;;0.50;0.50;;;7.80;99.90;;;;;;4978233;28;20688;-67
2022/03/27 07:03:56;;;;;;;0.50;0.50;;;8.00;99.90;;;;;;4963434;28;20610;-68
2022/03/27 07:06:23;;;;;;;0.30;0.30;;;8.10;99.90;;;;;;4956609;28;20768;-67
2022/03/27 07:08:50;;;;;;;0.50;0.50;;;8.30;99.90;;;;;;4963952;28;20629;-68
2022/03/27 07:11:17;;;;;;;0.30;0.30;;;8.40;99.90;;;;;;4969674;28;20638;-67
2022/03/27 07:13:44;;;;;;;0.47;0.47;;;8.50;99.90;;;;;;4962531;28;20644;-67
2022/03/27 07:16:11;;;;;;;0.50;0.50;;;8.60;99.90;;;;;;4965074;28;20659;-68
2022/03/27 07:18:38;;;;;;;0.40;0.40;;;8.80;99.90;;;;;;4977807;28;20666;-68
2022/03/27 07:21:06;;;;;;;0.30;0.30;;;8.90;99.90;;;;;;4964058;28;20627;-68
2022/03/27 07:23:33;;;;;;;0.30;0.30;;;9.10;99.90;;;;;;4963132;28;20701;-68
2022/03/27 07:26:01;;;;;;;0.13;0.13;;;9.20;99.90;;;;;;4978205;28;20657;-68
2022/03/27 07:28:30;;;;;;;0.17;0.17;;;9.10;99.90;;;;;;4979176;28;20968;-68
2022/03/27 07:30:58;;;;;;;0.20;0.20;;;9.10;99.90;;;;;;4953885;28;20669;-67
2022/03/27 07:33:27;;;;;;;0.10;0.10;;;9.10;99.90;;;;;;4977244;28;20707;-67
2022/03/27 07:35:55;;;;;;;0.20;0.20;;;9.20;99.90;;;;;;4955114;28;20665;-68
2022/03/27 07:38:23;;;;;;;0.10;0.10;;;9.30;99.90;;;;;;4969558;28;20662;-67
2022/03/27 07:40:50;;;;;;;0.20;0.20;;;9.30;99.90;;;;;;4954829;28;20688;-66
2022/03/27 07:43:17;;;;;;;0.10;0.10;;;9.30;99.90;;;;;;4963509;28;20617;-68
2022/03/27 07:45:44;;;;;;;0.20;0.20;;;9.30;99.90;;;;;;4964211;28;20616;-66
2022/03/27 07:48:12;;;;;;;0.10;0.10;;;9.30;99.90;;;;;;4963711;28;20642;-67
2022/03/27 07:50:39;;;;;;;0.10;0.10;;;9.30;99.90;;;;;;4963701;28;20612;-68
2022/03/27 07:53:06;;;;;;;0.10;0.10;;;9.20;99.90;;;;;;4978519;28;20709;-68
2022/03/27 07:55:37;;;;;;;0.10;0.10;;;9.20;99.90;;;;;;4962777;28;21099;-67
2022/03/27 07:58:04;;;;;;;0.20;0.20;;;9.20;99.90;;;;;;4961744;28;20653;-68
2022/03/27 08:00:31;;;;;;;0.10;0.10;;;9.20;99.90;;;;;;4960834;28;20723;-68
2022/03/27 08:02:59;;;;;;;0.20;0.20;;;9.30;99.90;;;;;;4970345;28;21116;-68
2022/03/27 08:05:27;;;;;;;0.10;0.10;;;9.40;99.90;;;;;;4971521;28;20633;-67
2022/03/27 08:07:54;;;;;;;0.10;0.10;;;9.40;99.90;;;;;;4962167;28;20656;-67
2022/03/27 08:10:21;;;;;;;0.10;0.10;;;9.60;99.90;;;;;;4962997;28;20625;-67
2022/03/27 08:12:49;;;;;;;0.10;0.10;;;9.80;99.90;;;;;;5001235;23;20692;-79
2022/03/27 08:15:18;;;;;;;0.20;0.20;;;10.00;99.90;;;;;;4962826;28;20652;-78
2022/03/27 08:17:45;;;;;;;0.10;0.10;;;10.20;99.90;;;;;;4964071;28;20340;-78
2022/03/27 08:20:12;;;;;;;0.10;0.10;;;10.30;99.90;;;;;;4978433;28;20687;-79
2022/03/27 08:22:40;;;;;;;0.10;0.10;;;10.50;99.90;;;;;;4964515;28;20661;-79
2022/03/27 08:25:09;;;;;;;0.10;0.10;;;10.70;99.90;;;;;;4964099;28;20202;-79
2022/03/27 08:27:35;;;;;;;0.10;0.10;;;10.90;99.90;;;;;;4979034;28;20209;-79
2022/03/27 08:30:06;;;;;;;0.20;0.20;;;11.30;99.90;;;;;;4965648;28;20200;-78
2022/03/27 08:32:34;;;;;;;0.20;0.20;;;11.60;99.90;;;;;;4964274;28;20226;-82
2022/03/27 08:35:01;;;;;;;0.10;0.10;;;11.90;99.90;;;;;;4968547;28;20237;-81
2022/03/27 08:37:28;;;;;;;0.10;0.10;;;12.10;99.90;;;;;;4965674;28;20202;-85
2022/03/27 08:39:55;;;;;;;0.10;0.10;;;12.30;99.90;;;;;;4963876;28;20304;-79
2022/03/27 08:42:22;;;;;;;0.10;0.10;;;12.50;99.90;;;;;;4965751;28;20230;-80
2022/03/27 08:44:49;;;;;;;0.10;0.10;;;12.60;99.90;;;;;;4964835;28;20210;-81
2022/03/27 08:47:22;;;;;;;0.10;0.10;;;12.80;99.90;;;;;;4964593;28;20213;-79
2022/03/27 08:49:55;;;;;;;0.10;0.10;;;13.10;99.90;;;;;;4972479;28;20210;-77
2022/03/27 08:52:36;;;;;;;0.10;0.10;;;13.10;99.90;;;;;;4970972;28;20241;-80
2022/03/27 08:55:06;;;;;;;0.10;0.10;;;13.40;99.90;;;;;;4980044;28;20690;-77
2022/03/27 08:57:56;;;;;;;0.10;0.10;;;13.60;99.90;;;;;;4963518;28;20210;-80
2022/03/27 09:00:25;;;;;;;0.10;0.10;;;13.60;99.90;;;;;;4997589;28;20201;-79
2022/03/27 09:02:54;;;;;;;0.10;0.10;;;13.70;99.90;;;;;;4973055;28;20242;-79
2022/03/27 09:05:23;;;;;;;0.10;0.10;;;13.90;99.90;;;;;;4968775;28;20273;-80
2022/03/27 09:07:54;;;;;;;0.10;0.10;;;13.90;99.90;;;;;;4973606;28;20206;-79
2022/03/27 09:10:24;;;;;;;0.10;0.10;;;;;;;;;;4978293;28;20237;-79
2022/03/27 09:12:53;;;;;;;0.10;0.10;;;14.10;99.90;;;;;;4957545;28;20265;-79
2022/03/27 09:15:20;;;;;;;0.07;0.07;;;14.60;99.90;;;;;;4964109;28;20194;-79
2022/03/27 09:18:01;;;;;;;0.10;0.10;;;14.90;99.90;;;;;;4978741;28;20233;-81
2022/03/27 09:20:40;;;;;;;0.10;0.10;;;14.90;99.90;;;;;;4969082;28;20229;-76
2022/03/27 09:23:17;;;;;;;0.00;0.00;;;15.00;99.90;;;;;;4964068;28;20218;-79
2022/03/27 09:25:51;;;;;;;0.10;0.10;;;14.90;99.90;;;;;;4994437;28;20213;-82
2022/03/27 09:28:29;;;;;;;0.10;0.10;;;15.10;99.90;;;;;;4994951;28;20300;-81
2022/03/27 09:30:57;;;;;;;0.10;0.10;;;;;;;;;;4963046;28;20198;-78
2022/03/27 09:33:37;;;;;;;0.10;0.10;;;;;;;;;;4960783;28;20239;-78
2022/03/27 09:36:05;;;;;;;0.10;0.10;;;;;;;;;;4970469;28;20224;-79
2022/03/27 09:38:32;;;;;;;0.10;0.10;;;;;;;;;;4967212;28;20454;-77
2022/03/27 09:40:59;;;;;;;0.10;0.10;;;;;;;;;;4994244;28;20217;-79
2022/03/27 09:43:26;;;;;;;0.10;0.10;;;15.20;99.90;;;;;;4962327;28;20292;-79
2022/03/27 09:45:58;;;;;;;0.00;0.00;;;16.10;99.90;;;;;;4962442;28;20240;-78
2022/03/27 09:48:26;;;;;;;0.10;0.10;;;;;;;;;;4989332;28;20217;-76
2022/03/27 09:50:58;;;;;;;0.10;0.10;;;16.20;99.90;;;;;;4993426;28;20210;-79
2022/03/27 09:53:27;;;;;;;0.10;0.10;;;16.30;99.90;;;;;;4961925;28;20245;-75
2022/03/27 09:56:14;;;;;;;0.10;0.10;;;16.30;99.90;;;;;;4963607;28;20201;-75
2022/03/27 09:58:43;;;;;;;0.10;0.10;;;16.40;99.90;;;;;;4994013;28;20232;-79
2022/03/27 10:01:12;;;;;;;0.00;0.00;;;16.50;99.90;;;;;;4978353;28;20212;-78
2022/03/27 10:03:57;;;;;;;0.00;0.00;;;16.60;99.90;;;;;;4992762;28;20222;-80
2022/03/27 10:06:30;;;;;;;0.00;0.00;;;16.60;99.90;;;;;;4994200;28;20212;-80
2022/03/27 10:08:58;;;;;;;0.00;0.00;;;16.70;99.90;;;;;;4963292;28;20190;-79
2022/03/27 10:11:26;;;;;;;0.00;0.00;;;;;;;;;;4976492;28;20216;-78
2022/03/27 10:13:54;;;;;;;0.00;0.00;;;16.70;99.90;;;;;;4963060;28;20226;-80
2022/03/27 10:16:25;;;;;;;0.00;0.00;;;16.80;99.90;;;;;;4976693;28;20216;-78
2022/03/27 10:18:56;;;;;;;0.00;0.00;;;16.90;99.90;;;;;;4977543;28;20228;-78
2022/03/27 10:21:26;;;;;;;0.10;0.10;;;17.00;99.90;;;;;;4959270;28;20233;-78
2022/03/27 10:24:07;;;;;;;0.10;0.10;;;17.00;99.90;;;;;;4962250;28;20230;-77
2022/03/27 10:26:35;;;;;;;0.00;0.00;;;16.90;99.90;;;;;;4967805;28;20237;-78
2022/03/27 10:29:03;;;;;;;0.10;0.10;;;17.10;99.90;;;;;;4961638;28;20197;-77
2022/03/27 10:31:31;;;;;;;0.10;0.10;;;17.20;99.90;;;;;;4975239;28;20210;-77
2022/03/27 10:34:00;;;;;;;0.00;0.00;;;17.20;99.90;;;;;;4964707;28;20308;-77
2022/03/27 10:36:37;;;;;;;0.00;0.00;;;17.20;99.90;;;;;;4951168;28;20199;-77
2022/03/27 10:39:13;;;;;;;0.00;0.00;;;17.30;99.90;;;;;;4969290;28;20226;-77
2022/03/27 10:41:48;;;;;;;0.00;0.00;;;17.30;99.90;;;;;;4973074;28;20211;-78
2022/03/27 10:44:24;;;;;;;0.00;0.00;;;17.40;99.90;;;;;;4970001;28;20213;-78
2022/03/27 10:47:16;;;;;;;0.10;0.10;;;17.20;99.90;;;;;;4957636;28;20217;-78
2022/03/27 10:50:04;;;;;;;0.10;0.10;;;17.30;99.90;;;;;;4960236;28;20209;-78
2022/03/27 10:52:33;;;;;;;0.00;0.00;;;17.40;99.90;;;;;;4975254;28;20226;-78
2022/03/27 10:55:07;;;;;;;0.00;0.00;;;17.60;99.90;;;;;;4958738;28;20225;-77
2022/03/27 10:57:35;;;;;;;0.00;0.00;;;17.60;99.90;;;;;;4959533;28;20298;-77
2022/03/27 11:00:03;;;;;;;0.10;0.10;;;17.60;99.90;;;;;;4959362;28;20726;-78
2022/03/27 11:02:45;;;;;;;0.10;0.10;;;17.60;99.90;;;;;;4960055;28;20241;-78
2022/03/27 11:05:50;;;;;;;0.00;0.00;;;17.70;99.90;;;;;;4960040;28;20202;-78
2022/03/27 11:08:45;;;;;;;0.00;0.00;;;17.90;99.90;;;;;;4988794;28;20297;-77
2022/03/27 11:11:56;;;;;;;0.10;0.10;;;17.80;99.90;;;;;;4960812;28;20300;-77
2022/03/27 11:15:00;;;;;;;0.00;0.00;;;18.10;99.90;;;;;;4989728;28;20206;-77
2022/03/27 11:17:47;;;;;;;0.10;0.10;;;18.00;99.90;;;;;;4957414;28;20205;-77
2022/03/27 11:20:53;;;;;;;0.10;0.10;;;17.90;99.90;;;;;;4959667;28;20218;-77
2022/03/27 11:23:27;;;;;;;0.00;0.00;;;18.10;99.90;;;;;;4959015;28;20232;-77
2022/03/27 11:25:55;;;;;;;0.00;0.00;;;18.30;99.90;;;;;;4991904;28;20292;-77
2022/03/27 11:28:23;;;;;;;0.00;0.00;;;18.00;99.90;;;;;;4960660;28;20214;-77
2022/03/27 11:31:26;;;;;;;0.10;0.10;;;17.80;99.90;;;;;;4959913;28;20742;-77
2022/03/27 11:34:15;;;;;;;0.00;0.00;;;17.90;99.90;;;;;;4960100;28;20240;-76
2022/03/27 11:36:44;;;;;;;0.00;0.00;;;18.10;99.90;;;;;;4956763;28;20675;-76
2022/03/27 11:39:12;;;;;;;0.00;0.00;;;18.30;99.90;;;;;;4967829;28;20225;-77
2022/03/27 11:41:43;;;;;;;0.00;0.00;;;18.40;99.90;;;;;;4959607;28;20618;-77
2022/03/27 11:44:23;;;;;;;0.00;0.00;;;18.30;99.90;;;;;;4993996;28;20294;-77
2022/03/27 11:46:52;;;;;;;0.00;0.00;;;18.00;99.90;;;;;;4970910;28;20201;-76
2022/03/27 11:49:20;;;;;;;0.00;0.00;;;17.90;99.90;;;;;;4963406;28;20201;-76
2022/03/27 11:51:47;;;;;;;0.00;0.00;;;17.90;99.90;;;;;;4973107;28;20206;-76
2022/03/27 11:54:18;;;;;;;0.00;0.00;;;17.80;99.90;;;;;;4963729;28;20576;-77
2022/03/27 11:56:56;;;;;;;0.00;0.00;;;17.60;99.90;;;;;;4994208;28;20206;-77
2022/03/27 11:59:26;;;;;;;0.00;0.00;;;17.50;99.90;;;;;;4963775;28;20217;-76
2022/03/27 12:01:54;;;;;;;0.10;0.10;;;17.30;99.90;;;;;;4960779;28;20209;-77
2022/03/27 12:04:21;;;;;;;0.00;0.00;;;17.20;99.90;;;;;;4995279;28;20214;-76
2022/03/27 12:06:55;;;;;;;0.10;0.10;;;17.00;99.90;;;;;;4961348;28;20582;-76
2022/03/27 12:09:27;;;;;;;0.00;0.00;;;16.80;99.90;;;;;;4979414;28;20206;-77
2022/03/27 12:12:05;;;;;;;0.00;0.00;;;16.80;99.90;;;;;;4963432;28;20237;-77
2022/03/27 12:14:34;;;;;;;0.00;0.00;;;16.70;99.90;;;;;;4993759;28;20210;-77
2022/03/27 12:17:02;;;;;;;0.00;0.00;;;16.60;99.90;;;;;;4969564;28;20210;-77
2022/03/27 12:19:29;;;;;;;0.00;0.00;;;16.50;99.90;;;;;;4977013;28;20305;-77
2022/03/27 12:21:55;;;;;;;0.00;0.00;;;16.40;99.90;;;;;;4962527;28;20661;-77
2022/03/27 12:24:23;;;;;;;0.00;0.00;;;16.40;99.90;;;;;;4961748;28;20198;-76
2022/03/27 12:29:49;;;;;;;0.00;0.00;;;16.70;99.90;;;;;;4969814;28;20225;-79
2022/03/27 12:32:18;;;;;;;0.00;0.00;;;17.00;99.90;;;;;;4962309;28;20235;-79
2022/03/27 12:34:47;;;;;;;0.00;0.00;;;17.30;99.90;;;;;;4967623;28;20229;-79
2022/03/27 12:37:16;;;;;;;0.00;0.00;;;17.30;99.90;;;;;;4964981;28;20198;-79
2022/03/27 12:40:03;;;;;;;0.00;0.00;;;17.40;99.90;;;;;;4966841;28;20230;-79
2022/03/27 12:42:32;;;;;;;0.00;0.00;;;17.20;99.90;;;;;;4964914;28;20297;-79
2022/03/27 12:45:05;;;;;;;0.10;0.10;;;17.10;99.90;;;;;;4981813;28;20256;-78
2022/03/27 12:47:34;;;;;;;0.00;0.00;;;16.90;99.90;;;;;;4975314;28;20214;-79
2022/03/27 12:50:01;;;;;;;0.00;0.00;;;16.90;99.90;;;;;;4973567;28;20277;-79
2022/03/27 12:52:29;;;;;;;0.00;0.00;;;17.10;99.90;;;;;;4966828;28;20230;-80
2022/03/27 12:55:03;;;;;;;0.00;0.00;;;17.10;99.90;;;;;;4969907;28;20216;-78
2022/03/27 12:57:50;;;;;;;0.00;0.00;;;17.20;99.90;;;;;;4996946;28;20234;-78
2022/03/27 13:00:20;;;;;;;0.00;0.00;;;17.20;99.90;;;;;;4971133;28;20225;-79
2022/03/27 13:02:47;;;;;;;0.00;0.00;;;17.10;99.90;;;;;;4966259;28;20225;-79
2022/03/27 13:05:15;;;;;;;0.00;0.00;;;17.00;99.90;;;;;;4965679;28;20202;-79
2022/03/27 13:07:52;;;;;;;0.00;0.00;;;17.10;99.90;;;;;;4980524;28;20210;-78
2022/03/27 13:10:20;;;;;;;0.00;0.00;;;17.10;99.90;;;;;;4975854;28;20201;-78
2022/03/27 13:12:47;;;;;;;0.00;0.00;;;17.20;99.90;;;;;;4971300;28;20309;-78
2022/03/27 13:15:14;;;;;;;0.00;0.00;;;17.20;99.90;;;;;;4962826;28;20206;-78
2022/03/27 13:17:42;;;;;;;0.00;0.00;;;17.20;99.90;;;;;;4964308;28;20209;-78
2022/03/27 13:20:28;;;;;;;0.00;0.00;;;17.00;99.90;;;;;;4962321;28;20210;-79
2022/03/27 13:22:57;;;;;;;0.00;0.00;;;16.90;99.90;;;;;;4898210;28;20276;-77
2022/03/27 13:25:24;;;;;;;0.00;0.00;;;16.90;99.90;;;;;;4741524;28;20203;-77
2022/03/27 13:27:53;;;;;;;0.00;0.00;;;16.90;99.90;;;;;;4758523;28;20221;-77
2022/03/27 13:30:22;;;;;;;0.00;0.00;;;16.90;99.90;;;;;;4844658;28;20264;-77